Home > Products > Valid Products > MTR

000
SAUS46 KMTR 030656
MTRMHS
METAR KMHS 030656Z AUTO 05003KT 10SM CLR 03/M02 A2997 RMK AO2 SLP167
T00331017





000
SAUS46 KMTR 030556
MTRMHS
METAR KMHS 030556Z AUTO VRB06G14KT 10SM BKN055 04/M02 A2995 RMK AO2
SLP162 T00441017 10106 20044 53030





000
SAUS46 KMTR 030556
MTRMHS
METAR KMHS 030556Z AUTO VRB06G14KT 10SM BKN055 04/M02 A2995 RMK AO2
SLP162 T00441017 10106 20044 53030





000
SAUS46 KMTR 030456
MTRMHS
METAR KMHS 030456Z AUTO 30007KT 10SM BKN055 05/M02 A2992 RMK AO2
SLP154 T00501017





000
SAUS46 KMTR 030456
MTRMHS
METAR KMHS 030456Z AUTO 30007KT 10SM BKN055 05/M02 A2992 RMK AO2
SLP154 T00501017





000
SAUS46 KMTR 030356
MTRMHS
METAR KMHS 030356Z AUTO 31006KT 10SM CLR 05/M02 A2988 RMK AO2 SLP143
T00501017





000
SAUS46 KMTR 030256
MTRMHS
METAR KMHS 030256Z AUTO 09003KT 10SM FEW065 BKN075 07/00 A2985 RMK
AO2 SLP130 T00670000 53017





000
SAUS46 KMTR 030256
MTRMHS
METAR KMHS 030256Z AUTO 09003KT 10SM FEW065 BKN075 07/00 A2985 RMK
AO2 SLP130 T00670000 53017





000
SAUS46 KMTR 030156
MTRMHS
METAR KMHS 030156Z AUTO 10004KT 10SM SCT070 08/M01 A2983 RMK AO2
SLP120 T00781006





000
SAUS46 KMTR 030156
MTRMHS
METAR KMHS 030156Z AUTO 10004KT 10SM SCT070 08/M01 A2983 RMK AO2
SLP120 T00781006





000
SAUS46 KMTR 030056
MTRMHS
METAR KMHS 030056Z AUTO 00000KT 10SM BKN075 09/M02 A2981 RMK AO2
SLP111 T00941017





000
SAUS46 KMTR 030056
MTRMHS
METAR KMHS 030056Z AUTO 00000KT 10SM BKN075 09/M02 A2981 RMK AO2
SLP111 T00941017





000
SAUS46 KMTR 022356
MTRMHS
METAR KMHS 022356Z AUTO 10SM SCT070 11/M03 A2980 RMK AO2 SLP107
T01061033 10122 20072 53000





000
SAUS46 KMTR 022356
MTRMHS
METAR KMHS 022356Z AUTO 10SM SCT070 11/M03 A2980 RMK AO2 SLP107
T01061033 10122 20072 53000





000
SAUS46 KMTR 022156
MTRMHS
METAR KMHS 022156Z AUTO VRB04KT 10SM CLR 12/M04 A2978 RMK AO2 SLP104
T01171044





000
SAUS46 KMTR 022156
MTRMHS
METAR KMHS 022156Z AUTO VRB04KT 10SM CLR 12/M04 A2978 RMK AO2 SLP104
T01171044





000
SAUS46 KMTR 022056
MTRMHS
METAR KMHS 022056Z AUTO VRB04KT 10SM CLR 11/M04 A2980 RMK AO2 SLP108
T01111044 58002





000
SAUS46 KMTR 022056
MTRMHS
METAR KMHS 022056Z AUTO VRB04KT 10SM CLR 11/M04 A2980 RMK AO2 SLP108
T01111044 58002





000
SAUS46 KMTR 021956
MTRMHS
METAR KMHS 021956Z AUTO 29007KT 10SM CLR 09/M05 A2980 RMK AO2 SLP114
T00941050





000
SAUS46 KMTR 021956
MTRMHS
METAR KMHS 021956Z AUTO 29007KT 10SM CLR 09/M05 A2980 RMK AO2 SLP114
T00941050





000
SAUS46 KMTR 021856
MTRMHS
METAR KMHS 021856Z AUTO VRB04KT 10SM CLR 08/M05 A2981 RMK AO2 SLP116
T00831050





000
SAUS46 KMTR 021856
MTRMHS
METAR KMHS 021856Z AUTO VRB04KT 10SM CLR 08/M05 A2981 RMK AO2 SLP116
T00831050





000
SAUS46 KMTR 021756
MTRMHS
METAR KMHS 021756Z AUTO VRB05KT 10SM FEW040 07/M04 A2980 RMK AO2
SLP117 T00721044 10072 20022 50009





000
SAUS46 KMTR 021756
MTRMHS
METAR KMHS 021756Z AUTO VRB05KT 10SM FEW040 07/M04 A2980 RMK AO2
SLP117 T00721044 10072 20022 50009





000
SAUS46 KMTR 021656
MTRMHS
METAR KMHS 021656Z AUTO 35007KT 10SM BKN070 OVC095 04/M04 A2981 RMK
AO2 SLP124 T00391039





000
SAUS46 KMTR 021656
MTRMHS
METAR KMHS 021656Z AUTO 35007KT 10SM BKN070 OVC095 04/M04 A2981 RMK
AO2 SLP124 T00391039





000
SAUS46 KMTR 021556
MTRMHS
METAR KMHS 021556Z AUTO VRB06KT 10SM FEW045 OVC070 03/M05 A2979 RMK
AO2 SLP117 T00331050





000
SAUS46 KMTR 021556
MTRMHS
METAR KMHS 021556Z AUTO VRB06KT 10SM FEW045 OVC070 03/M05 A2979 RMK
AO2 SLP117 T00331050





000
SAUS46 KMTR 021456
MTRMHS
METAR KMHS 021456Z AUTO VRB03KT 10SM FEW044 OVC070 03/M04 A2977 RMK
AO2 SLP106 T00281044 53004





000
SAUS46 KMTR 021356
MTRMHS
METAR KMHS 021356Z AUTO VRB04KT 10SM FEW042 OVC065 03/M04 A2977 RMK
AO2 SLP104 T00281044





000
SAUS46 KMTR 021356
MTRMHS
METAR KMHS 021356Z AUTO VRB04KT 10SM FEW042 OVC065 03/M04 A2977 RMK
AO2 SLP104 T00281044





000
SAUS46 KMTR 021256
MTRMHS
METAR KMHS 021256Z AUTO 02004KT 10SM BKN055 OVC070 03/M04 A2976 RMK
AO2 SLP097 T00331044





000
SAUS46 KMTR 021156
MTRMHS
METAR KMHS 021156Z AUTO VRB06KT 10SM SCT080 BKN090 03/M04 A2976 RMK
AO2 SLP095 T00281039 10028 21006 56019





000
SAUS46 KMTR 021056
MTRMHS
METAR KMHS 021056Z AUTO 00000KT 10SM CLR 01/M04 A2978 RMK AO2 SLP105
T00061039





000
SAUS46 KMTR 020956
MTRMHS
METAR KMHS 020956Z AUTO 00000KT 10SM CLR 01/M04 A2980 RMK AO2 SLP112
T00061039





000
SAUS46 KMTR 020956
MTRMHS
METAR KMHS 020956Z AUTO 00000KT 10SM CLR 01/M04 A2980 RMK AO2 SLP112
T00061039





000
SAUS46 KMTR 020856
MTRMHS
METAR KMHS 020856Z AUTO 00000KT 8SM CLR 01/M04 A2982 RMK AO2 SLP120
T00111044 56027





000
SAUS46 KMTR 020856
MTRMHS
METAR KMHS 020856Z AUTO 00000KT 8SM CLR 01/M04 A2982 RMK AO2 SLP120
T00111044 56027





000
SAUS46 KMTR 020756
MTRMHS
METAR KMHS 020756Z AUTO 00000KT 10SM CLR 00/M04 A2985 RMK AO2 SLP133
T00001044 401061022





000
SAUS46 KMTR 020656
MTRMHS
METAR KMHS 020656Z AUTO 07003KT 7SM CLR 00/M05 A2988 RMK AO2 SLP145
T00001050





000
SAUS46 KMTR 020656
MTRMHS
METAR KMHS 020656Z AUTO 07003KT 7SM CLR 00/M05 A2988 RMK AO2 SLP145
T00001050





000
SAUS46 KMTR 020556
MTRMHS
METAR KMHS 020556Z AUTO 00000KT 7SM CLR M01/M05 A2991 RMK AO2 SLP160
T10061050 10100 21011 56009





000
SAUS46 KMTR 020556
MTRMHS
METAR KMHS 020556Z AUTO 00000KT 7SM CLR M01/M05 A2991 RMK AO2 SLP160
T10061050 10100 21011 56009





000
SAUS46 KMTR 020456
MTRMHS
METAR KMHS 020456Z AUTO 00000KT 8SM CLR 01/M06 A2992 RMK AO2 SLP163
T00061056





000
SAUS46 KMTR 020356
MTRMHS
METAR KMHS 020356Z AUTO 04003KT 10SM CLR 01/M04 A2993 RMK AO2 SLP168
T00111044





000
SAUS46 KMTR 020256
MTRMHS
METAR KMHS 020256Z AUTO 00000KT 10SM CLR 04/M04 A2994 RMK AO2 SLP173
T00441039 55008





000
SAUS46 KMTR 020156
MTRMHS
METAR KMHS 020156Z AUTO VRB03KT 10SM CLR 06/M04 A2994 RMK AO2 SLP169
T00611039





000
SAUS46 KMTR 020156
MTRMHS
METAR KMHS 020156Z AUTO VRB03KT 10SM CLR 06/M04 A2994 RMK AO2 SLP169
T00611039





000
SAUS46 KMTR 020056
MTRMHS
METAR KMHS 020056Z AUTO 30008KT 10SM CLR 09/M05 A2995 RMK AO2 SLP169
T00891050





000
SAUS46 KMTR 020056
MTRMHS
METAR KMHS 020056Z AUTO 30008KT 10SM CLR 09/M05 A2995 RMK AO2 SLP169
T00891050





000
SAUS46 KMTR 012356
MTRMHS
METAR KMHS 012356Z AUTO 30006KT 10SM CLR 10/M06 A2997 RMK AO2 SLP171
T01001056 10106 20039 56019





000
SAUS46 KMTR 012356
MTRMHS
METAR KMHS 012356Z AUTO 30006KT 10SM CLR 10/M06 A2997 RMK AO2 SLP171
T01001056 10106 20039 56019





000
SAUS46 KMTR 012258
MTRMHS
METAR KMHS 012256Z AUTO 29007KT 240V310 10SM CLR 11/M05 A2998 RMK
AO2 SLP176 T01061050





000
SAUS46 KMTR 012258
MTRMHS
METAR KMHS 012256Z AUTO 29007KT 240V310 10SM CLR 11/M05 A2998 RMK
AO2 SLP176 T01061050





000
SAUS46 KMTR 012156
MTRMHS
METAR KMHS 012156Z AUTO 29005KT 10SM CLR 10/M05 A3000 RMK AO2 SLP182
T01001050





000
SAUS46 KMTR 012156
MTRMHS
METAR KMHS 012156Z AUTO 29005KT 10SM CLR 10/M05 A3000 RMK AO2 SLP182
T01001050





000
SAUS46 KMTR 012056
MTRMHS
METAR KMHS 012056Z AUTO 30008KT 250V330 10SM CLR 09/M06 A3003 RMK
AO2 SLP193 T00941056 58022





000
SAUS46 KMTR 012056
MTRMHS
METAR KMHS 012056Z AUTO 30008KT 250V330 10SM CLR 09/M06 A3003 RMK
AO2 SLP193 T00941056 58022





000
SAUS46 KMTR 011956
MTRMHS
METAR KMHS 011956Z AUTO VRB03KT 10SM CLR 08/M06 A3006 RMK AO2 SLP204
T00781061





000
SAUS46 KMTR 011856
MTRMHS
METAR KMHS 011856Z AUTO 30009KT 10SM CLR 06/M07 A3009 RMK AO2 SLP216
T00561072





000
SAUS46 KMTR 011856
MTRMHS
METAR KMHS 011856Z AUTO 30009KT 10SM CLR 06/M07 A3009 RMK AO2 SLP216
T00561072





000
SAUS46 KMTR 011756
MTRMHS
METAR KMHS 011756Z AUTO 31008KT 10SM CLR 04/M08 A3010 RMK AO2 SLP222
T00391078 10039 21022 51005





000
SAUS46 KMTR 011756
MTRMHS
METAR KMHS 011756Z AUTO 31008KT 10SM CLR 04/M08 A3010 RMK AO2 SLP222
T00391078 10039 21022 51005





000
SAUS46 KMTR 011656
MTRMHS
METAR KMHS 011656Z AUTO 31007KT 280V350 10SM CLR 02/M08 A3010 RMK
AO2 SLP228 T00171083





000
SAUS46 KMTR 011656
MTRMHS
METAR KMHS 011656Z AUTO 31007KT 280V350 10SM CLR 02/M08 A3010 RMK
AO2 SLP228 T00171083





000
SAUS46 KMTR 011556
MTRMHS
METAR KMHS 011556Z AUTO VRB04KT 10SM CLR M01/M08 A3010 RMK AO2
SLP225 T10061083





000
SAUS46 KMTR 011456
MTRMHS
METAR KMHS 011456Z AUTO 33003KT 10SM CLR M02/M08 A3009 RMK AO2
SLP223 T10221083 51009





000
SAUS46 KMTR 011456
MTRMHS
METAR KMHS 011456Z AUTO 33003KT 10SM CLR M02/M08 A3009 RMK AO2
SLP223 T10221083 51009





000
SAUS46 KMTR 011257
MTRMHS
METAR KMHS 011256Z AUTO 00000KT 10SM CLR M01/M08 A3007 RMK AO2
SLP210 T10111083





000
SAUS46 KMTR 011257
MTRMHS
METAR KMHS 011256Z AUTO 00000KT 10SM CLR M01/M08 A3007 RMK AO2
SLP210 T10111083





000
SAUS46 KMTR 011158
MTRMHS
METAR KMHS 011156Z AUTO 00000KT 10SM CLR M01/M08 A3006 RMK AO2
SLP205 T10061083 10022 21011 58000





000
SAUS46 KMTR 011057
MTRMHS
METAR KMHS 011056Z AUTO 01005KT 10SM CLR M01/M08 A3006 RMK AO2
SLP207 T10061078





000
SAUS46 KMTR 010857
MTRMHS
METAR KMHS 010856Z AUTO VRB04KT 10SM CLR 00/M07 A3006 RMK AO2 SLP203
T00001072 51015





000
SAUS46 KMTR 010857
MTRMHS
METAR KMHS 010856Z AUTO VRB04KT 10SM CLR 00/M07 A3006 RMK AO2 SLP203
T00001072 51015





000
SAUS46 KMTR 010657
MTRMHS
METAR KMHS 010656Z AUTO 00000KT 10SM CLR 02/M07 A3003 RMK AO2 SLP194
T00171067





000
SAUS46 KMTR 010657
MTRMHS
METAR KMHS 010656Z AUTO 00000KT 10SM CLR 02/M07 A3003 RMK AO2 SLP194
T00171067





000
SAUS46 KMTR 010558
MTRMHS
METAR KMHS 010556Z AUTO VRB04KT 10SM CLR 02/M06 A3001 RMK AO2 SLP188
T00221056 10078 20000 53024





000
SAUS46 KMTR 010558
MTRMHS
METAR KMHS 010556Z AUTO VRB04KT 10SM CLR 02/M06 A3001 RMK AO2 SLP188
T00221056 10078 20000 53024





000
SAUS46 KMTR 010456
MTRMHS
METAR KMHS 010456Z AUTO 35003KT 10SM CLR 00/M04 A2997 RMK AO2 SLP181
T00001044





000
SAUS46 KMTR 010456
MTRMHS
METAR KMHS 010456Z AUTO 35003KT 10SM CLR 00/M04 A2997 RMK AO2 SLP181
T00001044





000
SAUS46 KMTR 010358
MTRMHS
METAR KMHS 010356Z AUTO VRB05KT 10SM CLR 04/M04 A2996 RMK AO2 SLP171
T00391044





000
SAUS46 KMTR 010358
MTRMHS
METAR KMHS 010356Z AUTO VRB05KT 10SM CLR 04/M04 A2996 RMK AO2 SLP171
T00391044





000
SAUS46 KMTR 010158
MTRMHS
METAR KMHS 010156Z AUTO 31007G17KT 280V340 10SM FEW075 SCT090 06/M04
A2991 RMK AO2 SLP154 T00561039





000
SAUS46 KMTR 010158
MTRMHS
METAR KMHS 010156Z AUTO 31007G17KT 280V340 10SM FEW075 SCT090 06/M04
A2991 RMK AO2 SLP154 T00561039





000
SAUS46 KMTR 010056
MTRMHS
METAR KMHS 010056Z AUTO 31008G18KT 280V340 10SM FEW050 BKN085 07/M03
A2989 RMK AO2 SLP143 T00721028





000
SAUS46 KMTR 010056
MTRMHS
METAR KMHS 010056Z AUTO 31008G18KT 280V340 10SM FEW050 BKN085 07/M03
A2989 RMK AO2 SLP143 T00721028





000
SAUS46 KMTR 282357
MTRMHS
METAR KMHS 282356Z AUTO VRB05G16KT 10SM SCT048 08/M03 A2987 RMK AO2
SLP137 60000 T00781028 10094 20050 53013





000
SAUS46 KMTR 282357
MTRMHS
METAR KMHS 282356Z AUTO VRB05G16KT 10SM SCT048 08/M03 A2987 RMK AO2
SLP137 60000 T00781028 10094 20050 53013





000
SAUS46 KMTR 282256
MTRMHS
METAR KMHS 282256Z AUTO 33009G20KT 270V030 10SM SCT050 OVC065 07/M03
A2985 RMK AO2 SLP132 T00721033





000
SAUS46 KMTR 282256
MTRMHS
METAR KMHS 282256Z AUTO 33009G20KT 270V030 10SM SCT050 OVC065 07/M03
A2985 RMK AO2 SLP132 T00721033





000
SAUS46 KMTR 282156
MTRMHS
METAR KMHS 282156Z AUTO VRB05G15KT 10SM OVC055 07/M04 A2984 RMK AO2
SLP126 T00721039





000
SAUS46 KMTR 282056
MTRMHS
METAR KMHS 282056Z AUTO 31008G14KT 260V340 10SM SCT040 OVC060 08/M01
A2983 RMK AO2 SLP124 60000 T00831011 50008





000
SAUS46 KMTR 282056
MTRMHS
METAR KMHS 282056Z AUTO 31008G14KT 260V340 10SM SCT040 OVC060 08/M01
A2983 RMK AO2 SLP124 60000 T00831011 50008





000
SAUS46 KMTR 281956
MTRMHS
METAR KMHS 281956Z AUTO VRB04KT 10SM SCT039 08/M01 A2983 RMK AO2
RAB10E21 SLP125 P0000 T00781006





000
SAUS46 KMTR 281756
MTRMHS
METAR KMHS 281756Z AUTO VRB05KT 10SM SCT024 OVC032 05/01 A2980 RMK
AO2 SLP117 60000 T00500006 10050 20022 52007





000
SAUS46 KMTR 281756
MTRMHS
METAR KMHS 281756Z AUTO VRB05KT 10SM SCT024 OVC032 05/01 A2980 RMK
AO2 SLP117 60000 T00500006 10050 20022 52007





000
SAUS46 KMTR 281718
MTRMHS
SPECI KMHS 281718Z AUTO VRB04KT 10SM SCT014 OVC020 04/01 A2979 RMK
AO2 T00390006





000
SAUS46 KMTR 281718
MTRMHS
SPECI KMHS 281718Z AUTO VRB04KT 10SM SCT014 OVC020 04/01 A2979 RMK
AO2 T00390006





000
SAUS46 KMTR 281656
MTRMHS
METAR KMHS 281656Z AUTO 34005KT 10SM FEW009 BKN013 OVC019 03/01
A2978 RMK AO2 UPB09E19 SLP109 P0000 T00330006





000
SAUS46 KMTR 281656
MTRMHS
METAR KMHS 281656Z AUTO 34005KT 10SM FEW009 BKN013 OVC019 03/01
A2978 RMK AO2 UPB09E19 SLP109 P0000 T00330006





000
SAUS46 KMTR 281644
MTRMHS
SPECI KMHS 281644Z AUTO VRB05KT 10SM SCT009 OVC015 03/01 A2978 RMK
AO2 UPB09E19 P0000 T00280006





000
SAUS46 KMTR 281614
MTRMHS
SPECI KMHS 281614Z AUTO VRB04KT 7SM UP BKN009 BKN014 OVC019 02/01
A2977 RMK AO2 UPB09 CIG 006V011 P0000 T00220006





000
SAUS46 KMTR 281614
MTRMHS
SPECI KMHS 281614Z AUTO VRB04KT 7SM UP BKN009 BKN014 OVC019 02/01
A2977 RMK AO2 UPB09 CIG 006V011 P0000 T00220006





000
SAUS46 KMTR 281555
MTRMHS
METAR KMHS 281556Z AUTO 00000KT 10SM OVC010 03/01 A2976 RMK AO2 CIG
007V012 SLP102 T00280006





000
SAUS46 KMTR 281420
MTRMHS
SPECI KMHS 281420Z AUTO VRB04KT 10SM BKN009 BKN014 OVC020 02/01
A2972 RMK AO2 CIG 008V013 T00220006





000
SAUS46 KMTR 281420
MTRMHS
SPECI KMHS 281420Z AUTO VRB04KT 10SM BKN009 BKN014 OVC020 02/01
A2972 RMK AO2 CIG 008V013 T00220006





000
SAUS46 KMTR 281358
MTRMHS
METAR KMHS 281356Z AUTO VRB04KT 10SM FEW010 BKN014 OVC025 02/01
A2972 RMK AO2 SLP087 T00220006





000
SAUS46 KMTR 281358
MTRMHS
METAR KMHS 281356Z AUTO VRB04KT 10SM FEW010 BKN014 OVC025 02/01
A2972 RMK AO2 SLP087 T00220006





000
SAUS46 KMTR 281256
MTRMHS
METAR KMHS 281256Z AUTO 00000KT 10SM BKN023 OVC029 02/01 A2970 RMK
AO2 SLP080 T00220006





000
SAUS46 KMTR 281256
MTRMHS
METAR KMHS 281256Z AUTO 00000KT 10SM BKN023 OVC029 02/01 A2970 RMK
AO2 SLP080 T00220006





000
SAUS46 KMTR 281158
MTRMHS
METAR KMHS 281156Z AUTO VRB03KT 10SM OVC026 02/00 A2968 RMK AO2
SLP071 70006 T00220000 10028 20000 51003





000
SAUS46 KMTR 281158
MTRMHS
METAR KMHS 281156Z AUTO VRB03KT 10SM OVC026 02/00 A2968 RMK AO2
SLP071 70006 T00220000 10028 20000 51003





000
SAUS46 KMTR 281136
MTRMHS
SPECI KMHS 281136Z AUTO 00000KT 10SM BKN028 01/M01 A2968 RMK AO2
T00111006





000
SAUS46 KMTR 281057
MTRMHS
METAR KMHS 281056Z AUTO 00000KT 10SM FEW036 SCT110 01/M01 A2968 RMK
AO2 SLP070 T00111011





000
SAUS46 KMTR 281057
MTRMHS
METAR KMHS 281056Z AUTO 00000KT 10SM FEW036 SCT110 01/M01 A2968 RMK
AO2 SLP070 T00111011





000
SAUS46 KMTR 280957
MTRMHS
METAR KMHS 280956Z AUTO 00000KT 10SM FEW026 BKN100 02/00 A2968 RMK
AO2 SLP067 T00220000





000
SAUS46 KMTR 280957
MTRMHS
METAR KMHS 280956Z AUTO 00000KT 10SM FEW026 BKN100 02/00 A2968 RMK
AO2 SLP067 T00220000





000
SAUS46 KMTR 280856
MTRMHS
METAR KMHS 280856Z AUTO 00000KT 10SM SCT100 00/M02 A2967 RMK AO2
SLP068 T00001017 58001





000
SAUS46 KMTR 280758
MTRMHS
METAR KMHS 280756Z AUTO 00000KT 10SM CLR 01/M01 A2967 RMK AO2 SLP065
T00061011 401220000





    US Dept of Commerce
    National Oceanic and Atmospheric Administration
    National Weather Service
    1325 East West Highway
    Silver Spring, MD 20910
    Page Author: NWS Internet Services Team
Disclaimer
Information Quality
Credits
Glossary
Privacy Policy
Freedom of Information Act (FOIA)
About Us
Career Opportunities